Time;durP1;ratioP1;P1;durP2;ratioP2;P2;SDS_P1;SDS_P2;PMS_P1;PMS_P2;Temp;Humidity;BMP_temperature;BMP_pressure;BME280_temperature;BME280_humidity;BME280_pressure;Samples;Min_cycle;Max_cycle;Signal;HPM_P1;HPM_P2
2022/08/23 00:04:11;;;;;;;29.85;21.45;;;;;;;17.03;100.00;99122.09;8429224;28;20122;-71
2022/08/23 00:08:14;;;;;;;38.83;22.48;;;;;;;17.00;100.00;99125.53;8448296;28;20059;-72
2022/08/23 00:12:18;;;;;;;40.40;23.40;;;;;;;17.00;100.00;99127.47;8441314;28;20040;-72
2022/08/23 00:16:20;;;;;;;30.38;22.65;;;;;;;17.02;100.00;99126.00;8427772;28;20534;-71
2022/08/23 00:20:25;;;;;;;35.92;22.08;;;;;;;17.01;100.00;99118.16;8424767;28;20074;-72
2022/08/23 00:24:26;;;;;;;39.47;23.00;;;;;;;17.03;100.00;99113.13;8436136;28;20048;-71
2022/08/23 00:28:31;;;;;;;38.65;21.55;;;;;;;16.99;100.00;99114.97;8420058;28;20110;-71
2022/08/23 00:32:39;;;;;;;31.80;21.85;;;;;;;16.98;100.00;99108.72;8428299;28;20043;-71
2022/08/23 00:36:43;;;;;;;33.33;21.58;;;;;;;16.94;100.00;99107.84;8374772;28;20808;-71
2022/08/23 00:40:51;;;;;;;35.20;21.25;;;;;;;16.92;100.00;99109.34;8401142;28;20056;-71
2022/08/23 00:49:21;;;;;;;25.15;20.05;;;;;;;16.88;100.00;99092.88;8434755;28;20567;-71
2022/08/23 00:53:41;;;;;;;28.42;20.67;;;;;;;16.89;100.00;99089.00;8438249;28;20048;-71
2022/08/23 00:57:42;;;;;;;36.67;20.10;;;;;;;16.90;100.00;99087.88;8426146;28;20036;-72
2022/08/23 01:01:50;;;;;;;25.92;19.95;;;;;;;16.89;100.00;99094.47;8427232;28;20048;-71
2022/08/23 01:05:57;;;;;;;33.28;19.80;;;;;;;16.87;100.00;99096.72;8427196;28;20043;-71
2022/08/23 01:10:08;;;;;;;34.17;21.17;;;;;;;16.86;100.00;99095.19;8407536;28;20051;-71
2022/08/23 01:14:18;;;;;;;34.95;19.73;;;;;;;16.86;100.00;99106.09;8422943;28;20878;-71
2022/08/23 01:18:23;;;;;;;25.00;18.75;;;;;;;16.84;100.00;99086.53;8379935;28;20063;-71
2022/08/23 01:22:52;;;;;;;32.05;18.85;;;;;;;16.84;100.00;99092.00;8372099;28;20061;-71
2022/08/23 01:26:53;;;;;;;28.15;18.23;;;;;;;16.80;100.00;99091.13;8371695;28;20428;-71
2022/08/23 01:30:54;;;;;;;31.92;18.00;;;;;;;16.76;100.00;99079.34;8369473;28;20064;-71
2022/08/23 01:34:59;;;;;;;33.15;17.90;;;;;;;16.78;100.00;99077.03;8365046;28;20086;-72
2022/08/23 01:39:02;;;;;;;26.17;17.48;;;;;;;16.77;100.00;99075.44;8388039;28;20045;-71
2022/08/23 01:43:04;;;;;;;25.42;16.63;;;;;;;16.74;100.00;99076.16;8389866;28;20044;-72
2022/08/23 02:01:34;;;;;;;20.45;14.10;;;;;;;16.81;100.00;99093.47;8489356;27;20390;-73
2022/08/23 02:05:38;;;;;;;22.55;12.98;;;;;;;16.72;100.00;99094.78;8456397;28;20075;-72
2022/08/23 02:09:39;;;;;;;23.00;13.55;;;;;;;16.70;100.00;99102.53;8441933;28;20056;-73
2022/08/23 02:13:41;;;;;;;18.58;12.55;;;;;;;16.69;100.00;99111.84;8446472;28;20189;-72
2022/08/23 02:17:43;;;;;;;24.05;13.23;;;;;;;16.66;100.00;99139.81;8446887;28;20150;-73
2022/08/23 02:32:17;;;;;;;22.45;13.43;;;;;;;16.62;100.00;99160.72;8433656;28;20128;-73
2022/08/23 02:36:18;;;;;;;32.90;13.07;;;;;;;16.62;100.00;99177.88;8453611;28;20089;-73
2022/08/23 02:40:19;;;;;;;40.95;13.73;;;;;;;16.58;100.00;99176.16;8436690;28;20048;-73
2022/08/23 02:44:21;;;;;;;21.23;12.98;;;;;;;16.48;100.00;99156.44;8415417;28;20056;-73
2022/08/23 02:48:22;;;;;;;19.23;13.13;;;;;;;16.46;100.00;99153.25;8452121;28;20047;-73
2022/08/23 02:52:23;;;;;;;17.80;12.43;;;;;;;16.46;100.00;99142.34;8432349;28;20507;-73
2022/08/23 02:56:23;;;;;;;20.30;12.70;;;;;;;16.50;100.00;99158.03;8353335;28;20055;-73
2022/08/23 03:00:25;;;;;;;21.60;12.88;;;;;;;16.48;100.00;99155.66;8366201;28;20048;-73
2022/08/23 03:04:25;;;;;;;28.35;13.40;;;;;;;16.47;100.00;99160.31;8292612;28;20081;-72
2022/08/23 03:08:26;;;;;;;19.73;12.38;;;;;;;16.46;100.00;99157.91;8291757;28;20061;-73
2022/08/23 03:12:27;;;;;;;17.25;12.40;;;;;;;16.46;100.00;99169.63;8287408;28;20072;-73
2022/08/23 03:16:29;;;;;;;19.58;12.38;;;;;;;16.46;100.00;99158.72;8275790;28;20066;-72
2022/08/23 03:20:29;;;;;;;17.00;12.18;;;;;;;16.44;100.00;99165.66;8285896;28;20387;-74
2022/08/23 03:24:31;;;;;;;18.33;12.73;;;;;;;16.42;100.00;99163.28;8288337;28;20053;-73
2022/08/23 03:28:33;;;;;;;26.08;12.98;;;;;;;16.41;100.00;99158.97;8388312;28;20067;-73
2022/08/23 03:32:34;;;;;;;15.77;12.73;;;;;;;16.38;100.00;99153.41;8374201;28;20049;-73
2022/08/23 03:36:35;;;;;;;21.10;14.02;;;;;;;16.35;100.00;99143.97;8424261;28;20178;-73
2022/08/23 03:40:36;;;;;;;20.25;14.18;;;;;;;16.37;100.00;99144.44;8423691;28;20455;-73
2022/08/23 03:44:38;;;;;;;21.33;13.63;;;;;;;16.35;100.00;99145.91;8415710;28;20041;-73
2022/08/23 03:48:40;;;;;;;22.27;13.35;;;;;;;16.35;100.00;99140.47;8414971;28;20479;-73
2022/08/23 03:52:41;;;;;;;17.98;12.77;;;;;;;16.34;100.00;99133.41;8381357;28;20040;-73
2022/08/23 03:56:59;;;;;;;17.15;13.25;;;;;;;16.30;100.00;99138.78;8428205;28;20373;-73
2022/08/23 04:01:00;;;;;;;26.60;15.07;;;;;;;16.31;100.00;99140.38;8415791;28;20052;-73
2022/08/23 04:05:01;;;;;;;18.80;12.15;;;;;;;16.31;100.00;99145.81;8407630;28;20399;-73
2022/08/23 04:09:02;;;;;;;18.05;11.85;;;;;;;16.32;100.00;99147.41;8427640;28;20082;-74
2022/08/23 04:13:05;;;;;;;24.50;12.95;;;;;;;16.34;100.00;99149.78;8425623;28;20055;-73
2022/08/23 04:17:06;;;;;;;17.50;12.32;;;;;;;16.33;100.00;99165.34;8425091;28;20574;-73
2022/08/23 04:21:09;;;;;;;17.20;12.63;;;;;;;16.33;100.00;99159.91;8408471;28;20047;-72
2022/08/23 04:25:10;;;;;;;15.63;12.23;;;;;;;16.32;100.00;99169.22;8410380;28;20403;-73
2022/08/23 04:29:15;;;;;;;18.23;12.95;;;;;;;16.35;100.00;99168.50;8427331;28;20052;-72
2022/08/23 04:33:17;;;;;;;13.60;12.20;;;;;;;16.32;100.00;99168.41;8426845;28;20044;-72
2022/08/23 04:37:18;;;;;;;15.00;12.68;;;;;;;16.28;100.00;99173.78;8424955;28;20062;-73
2022/08/23 04:45:38;;;;;;;19.60;11.70;;;;;;;16.26;100.00;99176.03;8396866;28;20041;-73
2022/08/23 04:49:39;;;;;;;13.27;11.88;;;;;;;16.29;100.00;99186.22;8407800;28;20071;-73
2022/08/23 04:53:41;;;;;;;14.68;12.43;;;;;;;16.31;100.00;99178.53;8409963;28;20063;-73
2022/08/23 04:57:42;;;;;;;16.33;12.70;;;;;;;16.29;100.00;99186.22;8405079;28;20477;-72
2022/08/23 05:01:44;;;;;;;17.55;12.65;;;;;;;16.31;100.00;99183.97;8363042;28;20041;-73
2022/08/23 05:05:45;;;;;;;17.15;13.38;;;;;;;16.31;100.00;99194.88;8407489;28;20040;-73
2022/08/23 05:09:46;;;;;;;20.15;13.00;;;;;;;16.35;100.00;99184.88;8406350;28;20113;-73
2022/08/23 05:13:47;;;;;;;23.85;13.80;;;;;;;16.34;100.00;99188.72;8425750;28;20138;-72
2022/08/23 05:17:48;;;;;;;18.98;14.30;;;;;;;16.35;100.00;99179.41;8425256;28;20059;-72
2022/08/23 05:21:49;;;;;;;17.38;13.57;;;;;;;16.39;100.00;99174.84;8426657;28;20479;-73
2022/08/23 05:25:55;;;;;;;26.58;14.52;;;;;;;16.41;100.00;99182.69;8417440;28;20462;-73
2022/08/23 05:29:56;;;;;;;19.77;15.18;;;;;;;16.45;100.00;99200.72;8423737;28;20055;-73
2022/08/23 05:33:57;;;;;;;21.15;13.82;;;;;;;16.47;100.00;99203.91;8410031;28;20048;-72
2022/08/23 05:37:59;;;;;;;18.73;14.73;;;;;;;16.48;100.00;99205.50;8393438;28;20102;-73
2022/08/23 05:42:00;;;;;;;25.63;15.02;;;;;;;16.47;100.00;99198.47;8395822;28;20054;-73
2022/08/23 05:46:03;;;;;;;27.60;14.73;;;;;;;16.51;100.00;99208.66;8408405;28;20154;-72
2022/08/23 05:50:05;;;;;;;24.60;14.98;;;;;;;16.53;100.00;99215.38;8395159;28;20041;-73
2022/08/23 05:54:07;;;;;;;22.80;15.38;;;;;;;16.54;100.00;99205.28;8395881;28;20070;-73
2022/08/23 05:58:08;;;;;;;26.58;15.60;;;;;;;16.52;100.00;99210.25;8392667;28;20060;-73
2022/08/23 06:02:09;;;;;;;28.73;15.38;;;;;;;16.48;100.00;99200.06;8395925;28;20149;-72
2022/08/23 06:06:11;;;;;;;23.60;15.40;;;;;;;16.50;100.00;99202.41;8395170;28;20052;-73
2022/08/23 06:10:12;;;;;;;26.70;14.85;;;;;;;16.56;100.00;99222.06;8394367;28;20043;-73
2022/08/23 06:14:14;;;;;;;26.23;15.52;;;;;;;16.59;100.00;99221.41;8395897;28;20048;-73
2022/08/23 06:18:15;;;;;;;20.98;15.07;;;;;;;16.63;100.00;99233.22;8394386;28;20044;-73
2022/08/23 06:22:17;;;;;;;24.73;16.02;;;;;;;16.66;100.00;99225.13;8363352;28;20423;-73
2022/08/23 06:26:22;;;;;;;18.60;15.85;;;;;;;16.73;100.00;99240.91;8360310;28;20063;-73
2022/08/23 06:30:23;;;;;;;21.90;16.35;;;;;;;16.80;100.00;99230.22;8396007;28;20044;-72
2022/08/23 06:34:31;;;;;;;21.83;15.80;;;;;;;16.75;100.00;99235.91;8396568;28;20099;-72
2022/08/23 06:38:33;;;;;;;24.42;16.38;;;;;;;16.80;100.00;99235.66;8402114;28;20044;-73
2022/08/23 06:42:34;;;;;;;26.13;16.42;;;;;;;16.79;100.00;99247.72;8403071;28;20052;-72
2022/08/23 06:46:37;;;;;;;20.63;16.40;;;;;;;16.79;100.00;99236.78;8404306;28;20058;-73
2022/08/23 06:50:40;;;;;;;22.33;15.80;;;;;;;16.80;100.00;99243.84;8400353;28;20048;-73
2022/08/23 06:54:43;;;;;;;20.88;16.63;;;;;;;16.82;100.00;99250.53;8399746;28;20063;-73
2022/08/23 06:58:43;;;;;;;24.75;16.65;;;;;;;16.86;100.00;99247.91;8398561;28;20049;-73
2022/08/23 07:02:45;;;;;;;36.25;16.80;;;;;;;16.88;100.00;99240.16;8400883;28;20067;-73
2022/08/23 07:06:46;;;;;;;26.98;16.98;;;;;;;16.81;100.00;99245.44;8406416;28;20044;-73
2022/08/23 07:10:47;;;;;;;24.92;16.90;;;;;;;16.83;100.00;99243.13;8401260;28;20048;-73
2022/08/23 07:14:48;;;;;;;25.85;17.23;;;;;;;16.94;100.00;99238.78;8396116;28;20437;-73
2022/08/23 07:18:50;;;;;;;29.65;18.38;;;;;;;16.96;100.00;99244.69;8398355;28;20105;-73
2022/08/23 07:22:51;;;;;;;26.65;17.58;;;;;;;16.99;100.00;99241.25;8405665;28;20040;-73
2022/08/23 07:26:52;;;;;;;36.65;19.85;;;;;;;16.98;100.00;99250.56;8403023;28;20048;-74
2022/08/23 07:31:06;;;;;;;31.83;19.02;;;;;;;16.96;100.00;99258.34;8395913;28;20072;-73
2022/08/23 07:35:07;;;;;;;25.95;18.38;;;;;;;16.96;100.00;99255.59;8405988;28;20403;-73
2022/08/23 07:39:09;;;;;;;31.13;20.15;;;;;;;17.01;100.00;99260.03;8398835;28;20117;-74
2022/08/23 07:43:10;;;;;;;29.30;18.55;;;;;;;17.03;100.00;99269.44;8398607;28;20032;-73
2022/08/23 07:47:11;;;;;;;25.95;16.90;;;;;;;16.99;100.00;99263.09;8399998;28;20071;-73
2022/08/23 07:51:13;;;;;;;22.73;16.20;;;;;;;17.02;100.00;99243.31;8399746;28;20036;-73
2022/08/23 07:55:17;;;;;;;21.15;15.65;;;;;;;17.08;100.00;99233.72;8401188;28;20064;-73
2022/08/23 07:59:18;;;;;;;22.35;14.98;;;;;;;17.16;100.00;99245.63;8388549;28;20052;-73
2022/08/23 08:03:20;;;;;;;21.23;15.05;;;;;;;17.18;100.00;99255.03;8398431;28;20070;-73
2022/08/23 08:07:21;;;;;;;21.10;15.85;;;;;;;17.19;100.00;99269.47;8398471;28;20910;-73
2022/08/23 08:11:26;;;;;;;19.83;15.43;;;;;;;17.15;100.00;99274.03;8398383;28;20125;-73
2022/08/23 08:15:27;;;;;;;15.70;13.30;;;;;;;17.14;100.00;99275.19;8404414;28;20036;-73
2022/08/23 08:19:28;;;;;;;19.50;12.48;;;;;;;17.18;100.00;99259.72;8397103;28;20041;-74
2022/08/23 08:23:29;;;;;;;14.05;12.32;;;;;;;17.26;100.00;99275.94;8399371;28;20683;-73
2022/08/23 08:27:31;;;;;;;15.48;12.52;;;;;;;17.30;100.00;99263.16;8395251;28;20044;-73
2022/08/23 08:31:33;;;;;;;14.32;11.52;;;;;;;17.39;100.00;99270.41;8395096;28;20044;-74
2022/08/23 08:35:35;;;;;;;13.02;11.55;;;;;;;17.49;100.00;99286.28;8395696;28;20044;-74
2022/08/23 08:39:36;;;;;;;11.77;10.57;;;;;;;17.52;100.00;99301.97;8399754;28;20119;-73
2022/08/23 08:43:48;;;;;;;13.95;11.27;;;;;;;17.57;100.00;99298.97;8358783;28;20321;-73
2022/08/23 08:47:58;;;;;;;13.57;9.93;;;;;;;17.69;100.00;99301.66;8356991;28;20045;-73
2022/08/23 08:52:04;;;;;;;13.32;10.10;;;;;;;17.86;100.00;99295.06;8359631;28;20041;-73
2022/08/23 08:56:22;;;;;;;11.88;10.48;;;;;;;17.98;100.00;99293.03;8362436;28;20046;-74
2022/08/23 09:00:31;;;;;;;13.30;10.32;;;;;;;18.06;100.00;99300.28;8359785;28;20071;-74
2022/08/23 09:04:33;;;;;;;13.60;11.95;;;;;;;18.10;100.00;99295.69;8340029;28;20536;-73
2022/08/23 09:09:08;;;;;;;18.20;12.68;;;;;;;18.20;100.00;99299.00;8376913;28;20525;-72
2022/08/23 09:13:30;;;;;;;14.18;12.52;;;;;;;18.22;100.00;99296.72;8382728;28;20048;-73
2022/08/23 09:17:42;;;;;;;18.00;14.07;;;;;;;18.31;100.00;99300.06;8419037;28;20051;-73
2022/08/23 09:22:00;;;;;;;16.67;14.07;;;;;;;18.58;100.00;99288.22;8425612;28;20510;-73
2022/08/23 09:26:21;;;;;;;16.20;13.63;;;;;;;18.75;100.00;99296.03;8411232;28;20101;-73
2022/08/23 09:30:47;;;;;;;16.17;13.88;;;;;;;18.78;100.00;99298.03;8412562;28;20406;-74
2022/08/23 09:34:48;;;;;;;36.28;32.67;;;;;;;18.71;100.00;99303.38;8426248;28;20047;-74
2022/08/23 09:38:54;;;;;;;16.52;14.65;;;;;;;18.73;100.00;99295.59;8415548;28;20040;-73
2022/08/23 09:43:14;;;;;;;28.27;19.33;;;;;;;18.80;100.00;99301.22;8410721;28;20055;-73
2022/08/23 09:47:16;;;;;;;27.58;19.38;;;;;;;18.93;100.00;99310.88;8425912;28;20703;-73
2022/08/23 09:51:33;;;;;;;21.15;15.30;;;;;;;19.28;100.00;99315.50;8426145;28;20048;-73
2022/08/23 09:55:38;;;;;;;17.17;13.57;;;;;;;19.39;100.00;99321.97;8412010;28;20089;-73
2022/08/23 09:59:50;;;;;;;19.17;14.23;;;;;;;19.40;100.00;99318.09;8425534;28;20056;-73
2022/08/23 10:04:09;;;;;;;18.85;13.82;;;;;;;19.55;100.00;99336.41;8426141;28;20040;-73
2022/08/23 10:08:28;;;;;;;16.00;12.63;;;;;;;19.50;100.00;99333.97;8425166;28;20055;-74
2022/08/23 10:12:29;;;;;;;;;;;;;;;19.51;100.00;99324.56;8432208;28;20059;-73
2022/08/23 10:16:57;;;;;;;16.95;13.85;;;;;;;19.60;100.00;99338.84;8419381;28;19953;-74
2022/08/23 10:21:14;;;;;;;19.67;14.32;;;;;;;19.37;100.00;99335.22;8425749;28;20041;-74
2022/08/23 10:25:23;;;;;;;19.95;15.50;;;;;;;19.30;100.00;99341.34;8432576;28;20040;-73
2022/08/23 10:29:39;;;;;;;26.23;17.88;;;;;;;19.19;100.00;99334.09;8422238;28;20056;-74
2022/08/23 10:33:58;;;;;;;25.17;17.25;;;;;;;19.14;100.00;99332.41;8418201;28;20036;-74
2022/08/23 10:38:20;;;;;;;22.80;17.33;;;;;;;19.16;100.00;99335.59;8431889;28;20460;-73
2022/08/23 10:42:35;;;;;;;29.27;17.38;;;;;;;19.12;100.00;99333.94;8419472;28;20052;-74
2022/08/23 10:46:43;;;;;;;29.05;19.65;;;;;;;19.02;100.00;99334.50;8366713;28;20049;-74
2022/08/23 10:50:49;;;;;;;31.67;21.95;;;;;;;18.93;100.00;99327.28;8361110;28;20072;-74
2022/08/23 10:55:16;;;;;;;30.48;20.95;;;;;;;18.89;100.00;99326.44;8361281;28;20056;-75
2022/08/23 10:59:20;;;;;;;24.90;20.60;;;;;;;18.97;100.00;99325.44;8374566;28;20049;-74
2022/08/23 11:03:25;;;;;;;29.33;21.83;;;;;;;18.98;100.00;99329.75;8360509;28;20485;-74
2022/08/23 11:07:29;;;;;;;32.03;20.73;;;;;;;18.97;100.00;99328.19;8374759;28;20041;-74
2022/08/23 11:11:39;;;;;;;29.83;21.40;;;;;;;18.97;100.00;99333.66;8374732;28;20386;-74
2022/08/23 11:15:44;;;;;;;33.63;22.13;;;;;;;19.02;100.00;99337.25;8360170;28;20057;-74
2022/08/23 11:20:07;;;;;;;30.23;22.88;;;;;;;19.12;100.00;99333.94;8374013;28;20069;-74
2022/08/23 11:24:27;;;;;;;26.98;22.27;;;;;;;19.21;100.00;99332.56;8397595;28;20062;-74
2022/08/23 11:28:28;;;;;;;28.80;22.48;;;;;;;19.34;100.00;99335.97;8430485;28;20416;-74
2022/08/23 11:32:37;;;;;;;29.27;22.55;;;;;;;19.46;100.00;99333.09;8430539;28;20051;-73
2022/08/23 11:36:38;;;;;;;30.77;21.58;;;;;;;19.49;100.00;99332.38;8414900;28;20127;-73
2022/08/23 11:40:45;;;;;;;28.13;20.67;;;;;;;19.51;100.00;99329.28;8430342;28;20048;-74
2022/08/23 11:44:47;;;;;;;27.02;20.23;;;;;;;19.53;100.00;99333.22;8430323;28;20086;-73
2022/08/23 11:49:29;;;;;;;21.73;17.90;;;;;;;19.52;100.00;99331.66;8429512;28;20526;-73
2022/08/23 11:54:01;;;;;;;21.48;18.30;;;;;;;19.54;100.00;99329.34;8293204;28;20721;-73
2022/08/23 11:58:14;;;;;;;21.00;18.02;;;;;;;19.81;100.00;99328.28;8292789;28;20153;-74
2022/08/23 12:02:33;;;;;;;22.90;17.27;;;;;;;20.22;100.00;99336.81;8293388;28;20112;-73
2022/08/23 12:06:54;;;;;;;21.02;16.00;;;;;;;20.41;100.00;99334.00;8293368;28;20104;-73
2022/08/23 12:11:15;;;;;;;16.98;14.73;;;;;;;20.52;100.00;99340.44;8222413;28;20108;-73
2022/08/23 12:15:16;;;;;;;18.02;14.13;;;;;;;20.45;100.00;99351.31;8209921;28;20059;-74
2022/08/23 12:19:43;;;;;;;20.17;14.48;;;;;;;20.35;100.00;99357.44;8212027;28;20047;-74
2022/08/23 12:23:46;;;;;;;20.73;14.48;;;;;;;20.39;100.00;99363.75;8227323;28;20047;-74
2022/08/23 12:27:53;;;;;;;19.48;13.43;;;;;;;20.38;100.00;99351.19;8188065;28;20596;-74
2022/08/23 12:31:57;;;;;;;17.40;13.77;;;;;;;20.43;100.00;99350.88;8371380;28;20136;-73
2022/08/23 12:36:06;;;;;;;77.93;50.47;;;;;;;20.58;100.00;99352.69;8358138;28;20061;-73
2022/08/23 12:40:22;;;;;;;32.03;26.10;;;;;;;20.72;100.00;99354.06;8365879;28;20071;-73
2022/08/23 12:44:26;;;;;;;18.83;14.63;;;;;;;20.75;100.00;99336.84;8412168;28;20381;-73
2022/08/23 12:48:30;;;;;;;22.42;16.48;;;;;;;20.89;100.00;99342.53;8427655;28;20388;-73
2022/08/23 12:52:34;;;;;;;17.52;12.70;;;;;;;21.14;100.00;99332.72;8426815;28;20074;-73
2022/08/23 12:56:35;;;;;;;21.27;13.32;;;;;;;21.17;100.00;99331.97;8427463;28;20078;-73
2022/08/23 13:00:52;;;;;;;12.48;11.18;;;;;;;21.11;100.00;99333.41;8363426;28;20052;-74
2022/08/23 13:05:00;;;;;;;15.10;12.68;;;;;;;21.28;100.00;99332.88;8426958;28;20036;-74
2022/08/23 13:09:18;;;;;;;;;;;;;;;21.37;100.00;99341.63;8426185;28;20047;-73
2022/08/23 13:13:23;;;;;;;15.32;11.40;;;;;;;21.45;100.00;99337.81;8407796;28;20048;-74
2022/08/23 13:17:27;;;;;;;15.52;12.00;;;;;;;21.18;100.00;99344.53;8368784;28;20055;-73
2022/08/23 13:21:30;;;;;;;14.77;12.55;;;;;;;21.05;100.00;99345.88;8386531;28;20080;-73
2022/08/23 13:25:39;;;;;;;19.15;13.85;;;;;;;21.05;100.00;99351.38;8377196;28;20045;-74
2022/08/23 13:29:58;;;;;;;15.25;11.70;;;;;;;20.96;100.00;99348.13;8351521;28;20057;-73
2022/08/23 13:33:59;;;;;;;14.90;12.45;;;;;;;20.85;100.00;99363.66;8384665;28;20051;-74
2022/08/23 13:38:12;;;;;;;29.10;13.95;;;;;;;20.85;100.00;99352.69;8373968;28;20048;-74
2022/08/23 13:42:15;;;;;;;16.38;12.27;;;;;;;20.82;100.00;99350.69;8377775;28;20692;-74
2022/08/23 13:46:19;;;;;;;15.38;12.55;;;;;;;20.75;100.00;99353.31;8367411;28;20048;-74
2022/08/23 13:50:34;;;;;;;21.02;14.05;;;;;;;20.70;100.00;99356.38;8359493;28;20143;-73
2022/08/23 13:54:37;;;;;;;20.20;14.43;;;;;;;20.64;100.00;99348.47;8381308;28;20044;-74
2022/08/23 13:58:38;;;;;;;14.45;12.20;;;;;;;20.64;100.00;99350.41;8422266;28;20067;-74
2022/08/23 14:02:39;;;;;;;16.35;12.57;;;;;;;20.58;100.00;99360.91;8424788;28;20450;-74
2022/08/23 14:06:40;;;;;;;16.55;12.77;;;;;;;20.51;100.00;99358.09;8342683;28;20182;-74
2022/08/23 14:10:41;;;;;;;25.67;17.67;;;;;;;20.43;100.00;99370.09;8425556;28;20381;-73
2022/08/23 14:14:43;;;;;;;15.85;13.43;;;;;;;20.41;100.00;99358.69;8425880;28;20043;-74
2022/08/23 14:18:44;;;;;;;21.23;15.60;;;;;;;20.40;100.00;99354.38;8415939;28;20051;-74
2022/08/23 14:22:45;;;;;;;20.13;14.43;;;;;;;20.44;100.00;99348.94;8420475;28;20052;-73
2022/08/23 14:26:46;;;;;;;18.73;14.23;;;;;;;20.48;100.00;99350.56;8423737;28;20076;-74
2022/08/23 14:30:47;;;;;;;20.45;14.98;;;;;;;20.53;100.00;99347.50;8416405;28;20049;-74
2022/08/23 14:34:48;;;;;;;22.33;18.25;;;;;;;20.52;100.00;99345.94;8419414;28;20055;-74
2022/08/23 14:38:50;;;;;;;30.20;21.02;;;;;;;20.42;100.00;99352.03;8424253;28;20048;-74
2022/08/23 14:42:52;;;;;;;46.40;29.88;;;;;;;20.42;100.00;99346.56;8424617;28;20496;-74
2022/08/23 14:46:53;;;;;;;28.13;22.00;;;;;;;20.40;100.00;99337.91;8423626;28;20453;-74
2022/08/23 14:50:56;;;;;;;32.22;20.13;;;;;;;20.38;100.00;99340.22;8413056;28;20032;-74
2022/08/23 14:54:57;;;;;;;28.17;17.83;;;;;;;20.37;100.00;99344.13;8413127;28;20385;-74
2022/08/23 14:58:58;;;;;;;31.40;19.70;;;;;;;20.39;100.00;99346.50;8404655;28;20090;-73
2022/08/23 15:03:04;;;;;;;30.42;20.13;;;;;;;20.37;100.00;99344.13;8402700;28;20051;-73
2022/08/23 15:07:05;;;;;;;31.92;23.80;;;;;;;20.35;100.00;99340.97;8430608;28;20040;-74
2022/08/23 15:11:08;;;;;;;30.55;20.60;;;;;;;20.34;100.00;99350.34;8422019;28;20040;-74
2022/08/23 15:15:13;;;;;;;65.57;46.17;;;;;;;20.31;100.00;99353.81;8430103;28;20032;-73
2022/08/23 15:19:15;;;;;;;47.58;29.35;;;;;;;20.29;100.00;99350.63;8429029;28;20040;-74
2022/08/23 15:23:18;;;;;;;37.35;25.85;;;;;;;20.29;100.00;99347.09;8417913;28;20055;-73
2022/08/23 15:27:20;;;;;;;36.65;25.80;;;;;;;20.26;100.00;99348.63;8428332;28;20515;-74
2022/08/23 15:31:21;;;;;;;44.95;30.98;;;;;;;20.26;100.00;99354.09;8413085;28;20078;-74
2022/08/23 15:35:24;;;;;;;47.10;28.35;;;;;;;20.23;100.00;99349.38;8415314;28;20051;-73
2022/08/23 15:39:25;;;;;;;39.00;26.60;;;;;;;20.24;100.00;99348.22;8407127;28;20513;-74
2022/08/23 15:43:26;;;;;;;46.58;34.17;;;;;;;20.31;100.00;99351.06;8425518;28;20425;-74
2022/08/23 15:47:32;;;;;;;42.15;27.05;;;;;;;20.34;100.00;99353.09;8422204;28;20517;-74
2022/08/23 15:51:33;;;;;;;42.15;30.83;;;;;;;20.35;100.00;99362.91;8396546;28;20115;-74
2022/08/23 15:55:35;;;;;;;90.32;57.22;;;;;;;20.34;100.00;99361.34;8410686;28;20048;-74
2022/08/23 15:59:36;;;;;;;112.22;64.18;;;;;;;20.36;100.00;99353.50;8423320;28;20507;-74
2022/08/23 16:03:41;;;;;;;40.35;25.73;;;;;;;20.43;100.00;99359.13;8413116;28;20765;-74
2022/08/23 16:07:42;;;;;;;66.43;43.35;;;;;;;20.48;100.00;99361.53;8416400;28;20048;-74
2022/08/23 16:11:43;;;;;;;38.75;23.63;;;;;;;20.44;100.00;99360.72;8399051;28;20048;-74
2022/08/23 16:15:44;;;;;;;34.95;24.10;;;;;;;20.47;100.00;99370.94;8388382;28;20416;-74
2022/08/23 16:19:46;;;;;;;37.25;26.45;;;;;;;20.50;100.00;99370.22;8427682;28;20757;-74
2022/08/23 16:23:47;;;;;;;39.17;23.73;;;;;;;20.46;100.00;99383.06;8408706;28;20503;-75
2022/08/23 16:27:48;;;;;;;34.40;24.73;;;;;;;20.41;100.00;99394.34;8407929;28;20048;-74
2022/08/23 16:31:50;;;;;;;356.15;203.90;;;;;;;20.36;100.00;99393.84;8427903;28;20052;-74
2022/08/23 16:35:51;;;;;;;41.75;26.83;;;;;;;20.28;100.00;99395.66;8419068;28;20044;-74
2022/08/23 16:39:52;;;;;;;38.33;27.35;;;;;;;20.23;100.00;99388.53;8422556;28;20059;-74
2022/08/23 16:43:53;;;;;;;33.85;23.00;;;;;;;20.20;100.00;99388.47;8428083;28;20465;-73
2022/08/23 16:47:54;;;;;;;37.85;25.30;;;;;;;20.18;100.00;99396.28;8427605;28;20060;-74
2022/08/23 16:51:55;;;;;;;35.38;25.58;;;;;;;20.13;100.00;99399.31;8396379;28;20126;-74
2022/08/23 16:55:56;;;;;;;39.03;23.20;;;;;;;20.10;100.00;99405.53;8393506;28;20059;-73
2022/08/23 16:59:57;;;;;;;40.22;24.50;;;;;;;20.06;100.00;99415.66;8415191;28;20217;-74
2022/08/23 17:03:58;;;;;;;36.05;23.30;;;;;;;20.04;100.00;99423.47;8424574;28;20127;-74
2022/08/23 17:07:59;;;;;;;36.80;26.10;;;;;;;20.02;100.00;99425.75;8393676;28;20044;-73
2022/08/23 17:12:01;;;;;;;40.25;25.58;;;;;;;19.99;100.00;99426.47;8390962;28;20381;-74
2022/08/23 17:16:03;;;;;;;37.47;24.52;;;;;;;19.98;100.00;99435.88;8411790;28;20468;-74
2022/08/23 17:20:04;;;;;;;32.35;24.33;;;;;;;19.98;100.00;99447.63;8425783;28;20496;-74
2022/08/23 17:24:05;;;;;;;38.47;25.20;;;;;;;19.98;100.00;99452.31;8411374;28;20047;-73
2022/08/23 17:28:07;;;;;;;47.88;28.70;;;;;;;19.96;100.00;99443.66;8426041;28;20135;-74
2022/08/23 17:32:08;;;;;;;38.00;25.00;;;;;;;19.94;100.00;99445.94;8426457;28;20480;-74
2022/08/23 17:36:30;;;;;;;37.08;27.15;;;;;;;19.91;100.00;99441.22;8426959;28;20048;-73
2022/08/23 17:40:34;;;;;;;38.50;26.27;;;;;;;19.88;100.00;99442.72;8426221;28;20051;-73
2022/08/23 17:44:36;;;;;;;40.42;26.88;;;;;;;19.87;100.00;99440.34;8426259;28;20040;-73
2022/08/23 17:48:37;;;;;;;36.22;25.40;;;;;;;19.87;100.00;99451.31;8426240;28;20052;-73
2022/08/23 17:52:38;;;;;;;38.65;27.80;;;;;;;19.79;100.00;99451.16;8409736;28;20502;-74
2022/08/23 17:56:39;;;;;;;38.97;28.25;;;;;;;19.77;100.00;99447.97;8424388;28;20486;-74
2022/08/23 18:00:41;;;;;;;38.90;26.42;;;;;;;19.79;100.00;99450.38;8425688;28;20408;-73
2022/08/23 18:04:41;;;;;;;37.95;27.13;;;;;;;19.77;100.00;99453.47;8413547;28;20055;-74
2022/08/23 18:08:43;;;;;;;42.33;28.10;;;;;;;19.75;100.00;99465.94;8410263;28;20148;-74
2022/08/23 18:12:44;;;;;;;35.60;26.77;;;;;;;19.73;100.00;99469.03;8416868;28;20411;-73
2022/08/23 18:16:45;;;;;;;40.28;27.00;;;;;;;19.70;100.00;99469.78;8425616;28;20051;-73
2022/08/23 18:20:46;;;;;;;39.83;28.33;;;;;;;19.67;100.00;99470.47;8412790;28;20052;-74
2022/08/23 18:24:48;;;;;;;46.45;30.10;;;;;;;19.66;100.00;99468.91;8410048;28;20044;-73
2022/08/23 18:28:48;;;;;;;45.90;29.70;;;;;;;19.63;100.00;99480.59;8424056;28;20037;-73
2022/08/23 18:32:50;;;;;;;42.60;30.17;;;;;;;19.60;100.00;99470.34;8423470;28;20035;-74
2022/08/23 18:36:52;;;;;;;41.90;30.02;;;;;;;19.59;100.00;99479.72;8430993;28;20085;-73
2022/08/23 18:40:53;;;;;;;42.40;29.20;;;;;;;19.57;100.00;99484.75;8416440;28;20036;-73
2022/08/23 18:44:54;;;;;;;45.17;31.13;;;;;;;19.53;100.00;99486.63;8407848;28;20043;-73
2022/08/23 18:48:55;;;;;;;53.17;31.92;;;;;;;19.47;100.00;99488.06;8402742;28;20041;-74
2022/08/23 18:52:56;;;;;;;49.70;31.42;;;;;;;19.43;100.00;99514.56;8406907;28;20476;-73
2022/08/23 18:56:57;;;;;;;46.92;30.42;;;;;;;19.44;100.00;99505.19;8414573;28;20074;-73
2022/08/23 19:00:58;;;;;;;63.05;33.83;;;;;;;19.47;100.00;99509.19;8387979;28;20471;-73
2022/08/23 19:05:01;;;;;;;49.72;33.08;;;;;;;19.47;100.00;99515.44;8408854;28;20055;-73
2022/08/23 19:09:04;;;;;;;58.65;33.47;;;;;;;19.50;100.00;99524.91;8404738;28;21319;-74